createdAt,value
2019-05-16T00:00:12.786Z,69.33
2019-05-16T00:02:39.225Z,64.97
2019-05-16T00:05:08.386Z,58.30
2019-05-16T00:07:35.195Z,53.30
2019-05-16T00:10:03.245Z,52.37
2019-05-16T00:12:30.315Z,52.97
2019-05-16T00:14:58.165Z,51.80
2019-05-16T00:17:28.229Z,52.90
2019-05-16T00:19:54.200Z,53.30
2019-05-16T00:22:20.746Z,51.93
2019-05-16T00:24:49.140Z,54.30
2019-05-16T00:27:15.738Z,48.13
2019-05-16T00:29:51.782Z,50.57
2019-05-16T00:32:19.212Z,59.03
2019-05-16T00:34:58.217Z,60.47
2019-05-16T00:37:28.650Z,53.00
2019-05-16T00:39:55.544Z,52.07
2019-05-16T00:42:22.104Z,45.77
2019-05-16T00:44:48.784Z,50.53
2019-05-16T00:47:17.701Z,47.17
2019-05-16T00:49:43.993Z,49.53
2019-05-16T00:52:10.657Z,48.77
2019-05-16T00:54:38.386Z,49.60
2019-05-16T00:57:08.331Z,44.43
2019-05-16T00:59:37.997Z,47.53
2019-05-16T01:02:04.162Z,48.10
2019-05-16T01:04:30.763Z,45.07
2019-05-16T01:06:58.501Z,40.60
2019-05-16T01:09:28.123Z,38.70
2019-05-16T01:11:54.922Z,48.70
2019-05-16T01:14:21.690Z,42.07
2019-05-16T01:16:53.423Z,36.93
2019-05-16T01:19:20.172Z,45.80
2019-05-16T01:21:48.332Z,42.77
2019-05-16T01:24:15.454Z,45.60
2019-05-16T01:26:42.835Z,50.13
2019-05-16T01:29:11.771Z,44.37
2019-05-16T01:31:38.014Z,43.30
2019-05-16T01:34:05.014Z,45.87
2019-05-16T01:36:40.670Z,44.47
2019-05-16T01:39:08.001Z,40.07
2019-05-16T01:41:34.725Z,47.73
2019-05-16T01:44:02.550Z,42.40
2019-05-16T01:46:39.066Z,43.07
2019-05-16T01:49:08.083Z,38.90
2019-05-16T01:51:34.668Z,43.47
2019-05-16T01:54:01.480Z,44.27
2019-05-16T01:56:42.586Z,41.30
2019-05-16T01:59:13.980Z,42.27
2019-05-16T02:01:40.603Z,38.37
2019-05-16T02:04:11.878Z,39.70
2019-05-16T02:06:48.361Z,39.53
2019-05-16T02:09:08.526Z,48.13
2019-05-16T02:11:35.199Z,41.97
2019-05-16T02:14:01.783Z,38.77
2019-05-16T02:16:28.415Z,41.40
2019-05-16T02:18:55.015Z,42.87
2019-05-16T02:21:21.640Z,40.30
2019-05-16T02:23:48.982Z,39.80
2019-05-16T02:26:19.137Z,40.87
2019-05-16T02:28:45.628Z,45.70
2019-05-16T02:31:15.317Z,37.93
2019-05-16T02:33:40.856Z,41.37
2019-05-16T02:36:10.859Z,42.37
2019-05-16T02:38:36.531Z,42.10
2019-05-16T02:41:03.621Z,39.10
2019-05-16T02:43:31.255Z,37.20
2019-05-16T02:46:01.210Z,40.13
2019-05-16T02:48:26.953Z,39.43
2019-05-16T02:50:53.395Z,40.10
2019-05-16T02:53:22.413Z,39.73
2019-05-16T02:55:51.547Z,44.07
2019-05-16T02:58:17.767Z,45.17
2019-05-16T03:00:51.209Z,41.40
2019-05-16T03:03:15.946Z,43.10
2019-05-16T03:05:43.698Z,43.80
2019-05-16T03:08:12.025Z,36.50
2019-05-16T03:10:41.300Z,39.63
2019-05-16T03:13:11.168Z,41.33
2019-05-16T03:15:40.758Z,39.73
2019-05-16T03:18:11.480Z,38.43
2019-05-16T03:20:40.560Z,37.27
2019-05-16T03:23:06.830Z,36.67
2019-05-16T03:25:33.483Z,36.57
2019-05-16T03:28:01.865Z,32.57
2019-05-16T03:30:34.167Z,34.93
2019-05-16T03:32:56.805Z,36.53
2019-05-16T03:35:25.173Z,39.37
2019-05-16T03:37:59.631Z,37.83
2019-05-16T03:40:32.714Z,34.23
2019-05-16T03:43:01.523Z,31.90
2019-05-16T03:45:31.502Z,34.57
2019-05-16T03:47:56.756Z,35.77
2019-05-16T03:50:26.433Z,36.13
2019-05-16T03:52:55.389Z,38.80
2019-05-16T03:55:21.822Z,39.43
2019-05-16T03:57:51.396Z,38.20
2019-05-16T04:00:21.260Z,37.03
2019-05-16T04:02:47.789Z,37.70
2019-05-16T04:05:14.553Z,35.87
2019-05-16T04:07:41.657Z,35.77
2019-05-16T04:10:10.991Z,40.77
2019-05-16T04:12:41.475Z,37.93
2019-05-16T04:15:14.678Z,39.50
2019-05-16T04:17:41.577Z,39.27
2019-05-16T04:20:11.820Z,38.43
2019-05-16T04:22:36.956Z,33.37
2019-05-16T04:25:10.874Z,38.83
2019-05-16T04:27:36.118Z,37.43
2019-05-16T04:30:05.729Z,37.20
2019-05-16T04:32:32.158Z,39.67
2019-05-16T04:35:02.176Z,60.13
2019-05-16T04:37:27.405Z,50.77
2019-05-16T04:39:55.776Z,36.03
2019-05-16T04:42:22.300Z,34.33
2019-05-16T04:44:51.503Z,41.50
2019-05-16T04:47:20.446Z,40.03
2019-05-16T04:49:46.032Z,39.40
2019-05-16T04:52:12.656Z,38.47
2019-05-16T04:54:42.003Z,34.83
2019-05-16T04:57:07.831Z,36.00
2019-05-16T04:59:34.460Z,34.23
2019-05-16T05:02:01.950Z,34.33
2019-05-16T05:04:30.604Z,31.53
2019-05-16T05:07:00.503Z,34.57
2019-05-16T05:09:26.427Z,38.60
2019-05-16T05:11:53.200Z,34.17
2019-05-16T05:14:21.191Z,40.10
2019-05-16T05:16:50.731Z,37.97
2019-05-16T05:19:20.029Z,37.50
2019-05-16T05:21:46.094Z,35.77
2019-05-16T05:24:12.557Z,38.20
2019-05-16T05:26:41.511Z,38.80
2019-05-16T05:29:07.637Z,33.00
2019-05-16T05:31:35.414Z,33.00
2019-05-16T05:34:02.995Z,31.17
2019-05-16T05:36:30.129Z,31.93
2019-05-16T05:39:09.029Z,34.13
2019-05-16T05:41:25.376Z,36.10
2019-05-16T05:43:54.395Z,36.37
2019-05-16T05:46:20.613Z,31.87
2019-05-16T05:48:47.580Z,32.70
2019-05-16T05:51:14.308Z,31.20
2019-05-16T05:53:41.000Z,32.10
2019-05-16T05:56:11.123Z,29.60
2019-05-16T05:58:36.125Z,35.37
2019-05-16T06:01:02.961Z,32.37
2019-05-16T06:03:32.898Z,32.47
2019-05-16T06:06:00.862Z,35.70
2019-05-16T06:08:26.870Z,39.87
2019-05-16T06:10:53.567Z,39.23
2019-05-16T06:13:20.969Z,35.03
2019-05-16T06:15:51.052Z,35.97
2019-05-16T06:18:19.820Z,33.33
2019-05-16T06:20:46.563Z,33.77
2019-05-16T06:23:13.071Z,34.63
2019-05-16T06:25:40.513Z,39.63
2019-05-16T06:28:07.560Z,32.23
2019-05-16T06:30:34.176Z,33.67
2019-05-16T06:33:00.753Z,28.00
2019-05-16T06:35:29.741Z,33.17
2019-05-16T06:37:55.733Z,35.30
2019-05-16T06:40:22.267Z,32.10
2019-05-16T06:42:50.955Z,29.80
2019-05-16T06:45:17.369Z,32.73
2019-05-16T06:47:43.903Z,25.97
2019-05-16T06:50:11.558Z,29.67
2019-05-16T06:52:40.648Z,29.03
2019-05-16T06:55:10.169Z,34.63
2019-05-16T06:57:36.839Z,47.33
2019-05-16T07:00:07.076Z,46.47
2019-05-16T07:02:34.700Z,36.83
2019-05-16T07:05:01.745Z,42.33
2019-05-16T07:07:30.638Z,36.50
2019-05-16T07:10:00.639Z,39.57
2019-05-16T07:12:25.167Z,31.37
2019-05-16T07:14:54.988Z,30.87
2019-05-16T07:17:21.550Z,33.73
2019-05-16T07:19:50.230Z,26.00
2019-05-16T07:22:16.627Z,43.27
2019-05-16T07:24:44.524Z,38.50
2019-05-16T07:27:12.383Z,38.43
2019-05-16T07:29:40.174Z,51.00
2019-05-16T07:32:09.041Z,49.93
2019-05-16T07:34:35.704Z,44.67
2019-05-16T07:37:02.369Z,33.77
2019-05-16T07:39:30.698Z,27.77
2019-05-16T07:42:00.033Z,32.00
2019-05-16T07:44:27.159Z,27.53
2019-05-16T07:46:53.700Z,22.33
2019-05-16T07:49:20.539Z,21.70
2019-05-16T07:51:47.137Z,22.33
2019-05-16T07:54:15.716Z,19.80
2019-05-16T07:56:42.252Z,18.77
2019-05-16T07:59:10.322Z,25.37
2019-05-16T08:01:40.182Z,23.90
2019-05-16T08:04:10.387Z,20.57
2019-05-16T08:06:36.199Z,18.47
2019-05-16T08:09:07.654Z,16.67
2019-05-16T08:11:33.428Z,17.77
2019-05-16T08:14:01.007Z,20.57
2019-05-16T08:16:30.591Z,19.37
2019-05-16T08:18:56.421Z,20.90
2019-05-16T08:21:27.472Z,22.63
2019-05-16T08:23:51.559Z,21.47
2019-05-16T08:26:21.508Z,20.80
2019-05-16T08:28:46.916Z,20.33
2019-05-16T08:31:13.452Z,24.63
2019-05-16T08:36:11.809Z,20.73
2019-05-16T08:38:36.729Z,19.07
2019-05-16T08:41:11.839Z,24.03
2019-05-16T08:43:32.009Z,25.40
2019-05-16T08:46:01.051Z,22.70
2019-05-16T08:48:27.192Z,19.00
2019-05-16T08:50:54.962Z,27.77
2019-05-16T08:53:22.052Z,23.23
2019-05-16T08:55:50.624Z,23.53
2019-05-16T08:58:17.234Z,22.73
2019-05-16T09:00:44.034Z,25.80
2019-05-16T09:03:12.366Z,25.63
2019-05-16T09:05:42.624Z,24.73
2019-05-16T09:08:07.684Z,25.00
2019-05-16T09:10:20.962Z,22.57
2019-05-16T09:10:49.986Z,25.40
2019-05-16T09:13:02.730Z,23.53
2019-05-16T09:15:29.292Z,26.30
2019-05-16T09:17:58.124Z,26.80
2019-05-16T09:20:24.227Z,24.60
2019-05-16T09:22:50.922Z,23.73
2019-05-16T09:25:18.547Z,23.17
2019-05-16T09:27:47.050Z,26.23
2019-05-16T09:30:17.048Z,23.93
2019-05-16T09:32:43.159Z,25.07
2019-05-16T09:35:10.595Z,24.70
2019-05-16T09:37:37.705Z,25.80
2019-05-16T09:40:07.253Z,41.20
2019-05-16T09:42:33.925Z,28.93
2019-05-16T09:45:00.389Z,30.97
2019-05-16T09:47:28.510Z,25.23
2019-05-16T09:49:57.759Z,32.97
2019-05-16T09:52:26.943Z,29.33
2019-05-16T09:54:53.246Z,33.63
2019-05-16T09:57:19.863Z,30.80
2019-05-16T09:59:46.602Z,34.03
2019-05-16T10:02:13.549Z,33.80
2019-05-16T10:04:40.174Z,30.67
2019-05-16T10:07:06.875Z,35.17
2019-05-16T10:09:44.520Z,28.03
2019-05-16T10:12:11.862Z,26.30
2019-05-16T10:14:30.374Z,31.27
2019-05-16T10:16:57.872Z,28.13
2019-05-16T10:19:27.365Z,28.63
2019-05-16T10:21:53.292Z,32.53
2019-05-16T10:24:20.034Z,32.87
2019-05-16T10:26:48.498Z,33.10
2019-05-16T10:29:17.985Z,32.20
2019-05-16T10:31:49.250Z,29.73
2019-05-16T10:34:11.894Z,31.37
2019-05-16T10:36:38.561Z,31.80
2019-05-16T10:39:07.613Z,33.13
2019-05-16T10:41:36.954Z,32.43
2019-05-16T10:44:02.979Z,34.07
2019-05-16T10:46:31.320Z,34.27
2019-05-16T10:48:57.922Z,34.03
2019-05-16T10:51:26.746Z,73.83
2019-05-16T10:54:05.694Z,33.87
2019-05-16T10:56:21.327Z,26.03
2019-05-16T10:59:21.596Z,25.13
2019-05-16T11:01:27.093Z,24.80
2019-05-16T11:03:48.899Z,27.07
2019-05-16T11:06:24.737Z,24.30
2019-05-16T11:08:41.425Z,23.67
2019-05-16T11:11:08.033Z,25.17
2019-05-16T11:13:36.932Z,23.37
2019-05-16T11:16:03.095Z,25.60
2019-05-16T11:18:29.651Z,26.37
2019-05-16T11:20:58.004Z,23.63
2019-05-16T11:23:30.716Z,30.37
2019-05-16T11:25:55.322Z,26.70
2019-05-16T11:28:21.403Z,24.27
2019-05-16T11:30:49.816Z,22.30
2019-05-16T11:33:17.345Z,22.53
2019-05-16T11:35:47.284Z,21.37
2019-05-16T11:38:12.947Z,20.63
2019-05-16T11:40:39.580Z,21.80
2019-05-16T11:43:17.479Z,23.80
2019-05-16T11:45:36.793Z,23.37
2019-05-16T11:48:03.620Z,22.40
2019-05-16T11:50:30.293Z,19.90
2019-05-16T11:52:57.037Z,19.40
2019-05-16T11:55:23.653Z,20.27
2019-05-16T11:57:50.082Z,23.87
2019-05-16T12:00:18.324Z,22.87
2019-05-16T12:02:47.704Z,22.93
2019-05-16T12:05:14.225Z,24.93
2019-05-16T12:07:44.325Z,23.47
2019-05-16T12:10:09.636Z,21.60
2019-05-16T12:12:36.993Z,25.23
2019-05-16T12:15:08.195Z,21.30
2019-05-16T12:17:35.080Z,24.27
2019-05-16T12:20:01.894Z,23.73
2019-05-16T12:22:28.898Z,23.77
2019-05-16T12:24:57.384Z,22.50
2019-05-16T12:27:31.781Z,23.60
2019-05-16T12:29:55.537Z,23.70
2019-05-16T12:32:20.607Z,21.43
2019-05-16T12:34:47.206Z,23.57
2019-05-16T12:37:13.714Z,22.37
2019-05-16T12:39:40.120Z,21.50
2019-05-16T12:42:08.495Z,21.43
2019-05-16T12:44:37.283Z,19.90
2019-05-16T12:47:03.476Z,15.77
2019-05-16T12:49:30.499Z,13.03
2019-05-16T12:51:57.110Z,13.23
2019-05-16T12:54:23.733Z,9.60
2019-05-16T12:56:50.416Z,10.90
2019-05-16T12:59:20.430Z,10.93
2019-05-16T13:01:47.962Z,11.07
2019-05-16T13:04:13.913Z,12.20
2019-05-16T13:06:40.533Z,10.87
2019-05-16T13:09:07.174Z,8.10
2019-05-16T13:11:33.599Z,8.33
2019-05-16T13:14:06.494Z,8.00
2019-05-16T13:16:28.469Z,9.10
2019-05-16T13:18:56.682Z,7.60
2019-05-16T13:21:23.595Z,10.37
2019-05-16T13:23:50.217Z,10.47
2019-05-16T13:26:17.696Z,8.80
2019-05-16T13:28:47.324Z,10.60
2019-05-16T13:31:12.961Z,10.93
2019-05-16T13:33:39.481Z,16.10
2019-05-16T13:36:07.553Z,10.90
2019-05-16T13:38:34.586Z,8.50
2019-05-16T13:41:01.150Z,14.07
2019-05-16T13:43:27.801Z,12.70
2019-05-16T13:45:54.331Z,11.10
2019-05-16T13:48:20.881Z,9.57
2019-05-16T13:50:47.614Z,9.37
2019-05-16T13:53:16.243Z,9.23
2019-05-16T13:55:42.570Z,12.60
2019-05-16T13:58:09.101Z,12.53
2019-05-16T14:00:37.665Z,12.43
2019-05-16T14:03:04.199Z,15.43
2019-05-16T14:05:30.813Z,10.97
2019-05-16T14:07:57.398Z,10.27
2019-05-16T14:10:23.972Z,12.47
2019-05-16T14:12:50.608Z,16.10
2019-05-16T14:15:18.283Z,14.87
2019-05-16T14:17:45.174Z,17.43
2019-05-16T14:20:14.987Z,13.07
2019-05-16T14:22:41.963Z,13.97
2019-05-16T14:25:09.175Z,14.67
2019-05-16T14:27:37.870Z,17.90
2019-05-16T14:30:07.695Z,14.80
2019-05-16T14:32:39.284Z,15.63
2019-05-16T14:35:02.710Z,14.10
2019-05-16T14:37:29.221Z,14.30
2019-05-16T14:39:57.796Z,14.77
2019-05-16T14:42:24.119Z,13.60
2019-05-16T14:45:06.417Z,15.23
2019-05-16T14:47:19.226Z,14.07
2019-05-16T14:49:48.646Z,13.23
2019-05-16T14:52:14.662Z,13.73
2019-05-16T14:54:41.269Z,16.90
2019-05-16T14:57:07.994Z,16.32
2019-05-16T14:59:36.467Z,16.03
2019-05-16T15:02:03.163Z,16.47
2019-05-16T15:04:30.094Z,18.48
2019-05-16T15:06:57.382Z,15.60
2019-05-16T15:09:24.035Z,18.20
2019-05-16T15:11:50.619Z,16.23
2019-05-16T15:14:17.634Z,15.90
2019-05-16T15:16:47.410Z,15.30
2019-05-16T15:19:13.761Z,16.77
2019-05-16T15:21:40.431Z,16.93
2019-05-16T15:24:07.107Z,17.53
2019-05-16T15:26:34.190Z,20.47
2019-05-16T15:29:01.289Z,17.80
2019-05-16T15:31:28.009Z,16.00
2019-05-16T15:33:54.551Z,18.07
2019-05-16T15:36:21.179Z,17.37
2019-05-16T15:38:47.765Z,17.90
2019-05-16T15:41:16.605Z,21.77
2019-05-16T15:43:42.709Z,20.10
2019-05-16T15:46:09.399Z,18.73
2019-05-16T15:48:37.103Z,18.10
2019-05-16T15:51:03.936Z,17.90
2019-05-16T15:53:31.110Z,18.33
2019-05-16T15:55:58.100Z,18.07
2019-05-16T15:58:26.741Z,21.33
2019-05-16T16:00:53.263Z,20.63
2019-05-16T16:03:19.786Z,19.80
2019-05-16T16:05:46.447Z,23.23
2019-05-16T16:08:13.066Z,24.83
2019-05-16T16:10:41.176Z,35.07
2019-05-16T16:13:08.931Z,27.10
2019-05-16T16:15:49.789Z,25.07
2019-05-16T16:18:08.903Z,29.37
2019-05-16T16:20:35.554Z,25.93
2019-05-16T16:23:02.147Z,25.53
2019-05-16T16:25:28.787Z,34.77
2019-05-16T16:27:57.306Z,29.30
2019-05-16T16:30:24.559Z,38.97
2019-05-16T16:32:51.235Z,34.43
2019-05-16T16:35:18.110Z,38.00
2019-05-16T16:37:46.772Z,42.13
2019-05-16T16:40:13.309Z,38.10
2019-05-16T16:42:39.988Z,34.27
2019-05-16T16:45:08.404Z,41.20
2019-05-16T16:47:37.448Z,29.70
2019-05-16T16:50:07.440Z,39.23
2019-05-16T16:52:33.269Z,33.33
2019-05-16T16:54:59.876Z,40.43
2019-05-16T16:57:27.061Z,46.13
2019-05-16T16:59:54.063Z,51.10
2019-05-16T17:02:21.030Z,52.30
2019-05-16T17:04:51.192Z,49.77
2019-05-16T17:07:16.784Z,51.87
2019-05-16T17:09:43.519Z,48.23
2019-05-16T17:12:10.450Z,56.70
2019-05-16T17:14:37.178Z,55.95
2019-05-16T17:17:03.993Z,57.43
2019-05-16T17:19:30.606Z,57.80
2019-05-16T17:22:11.756Z,57.37
2019-05-16T17:24:27.395Z,61.07
2019-05-16T17:27:20.347Z,62.90
2019-05-16T17:29:51.739Z,59.50
2019-05-16T17:35:00.963Z,65.20
2019-05-16T17:37:27.597Z,65.83
2019-05-16T17:39:56.805Z,78.20
2019-05-16T17:42:23.070Z,73.67
2019-05-16T17:44:49.828Z,74.12
2019-05-16T17:47:17.342Z,77.53
2019-05-16T17:49:46.134Z,74.80
2019-05-16T17:52:12.960Z,74.53
2019-05-16T17:54:39.414Z,78.37
2019-05-16T17:57:07.488Z,77.27
2019-05-16T17:59:34.315Z,77.47
2019-05-16T18:02:00.930Z,76.90
2019-05-16T18:04:27.512Z,74.87
2019-05-16T18:06:54.013Z,80.93
2019-05-16T18:09:20.526Z,81.40
2019-05-16T18:11:47.103Z,76.50
2019-05-16T18:14:13.728Z,80.33
2019-05-16T18:16:52.607Z,78.60
2019-05-16T18:19:09.245Z,79.10
2019-05-16T18:21:36.987Z,76.77
2019-05-16T18:24:04.297Z,81.10
2019-05-16T18:26:30.934Z,80.53
2019-05-16T18:28:57.468Z,84.67
2019-05-16T18:31:26.523Z,78.90
2019-05-16T18:33:52.938Z,77.80
2019-05-16T18:36:19.565Z,75.70
2019-05-16T18:38:46.754Z,76.40
2019-05-16T18:41:13.524Z,77.90
2019-05-16T18:43:40.163Z,79.87
2019-05-16T18:46:07.352Z,72.13
2019-05-16T18:48:36.438Z,75.17
2019-05-16T18:51:02.790Z,71.97
2019-05-16T18:53:29.514Z,72.30
2019-05-16T18:55:57.092Z,72.13
2019-05-16T18:58:26.799Z,72.10
2019-05-16T19:00:53.071Z,77.63
2019-05-16T19:03:19.686Z,75.13
2019-05-16T19:05:46.362Z,73.93
2019-05-16T19:08:13.000Z,71.20
2019-05-16T19:10:39.669Z,73.17
2019-05-16T19:13:08.232Z,73.37
2019-05-16T19:15:37.186Z,73.30
2019-05-16T19:18:03.268Z,69.17
2019-05-16T19:20:30.372Z,73.57
2019-05-16T19:22:58.915Z,78.43
2019-05-16T19:25:26.958Z,71.57
2019-05-16T19:27:54.147Z,79.00
2019-05-16T19:30:21.989Z,78.17
2019-05-16T19:32:48.618Z,78.30
2019-05-16T19:35:16.471Z,83.20
2019-05-16T19:37:43.378Z,74.07
2019-05-16T19:40:12.299Z,86.23
2019-05-16T19:42:39.037Z,87.20
2019-05-16T19:45:08.278Z,100.80
2019-05-16T19:47:40.216Z,155.43
2019-05-16T19:50:07.157Z,241.90
2019-05-16T19:52:33.748Z,232.60
2019-05-16T19:55:00.396Z,184.37
2019-05-16T19:57:26.934Z,169.43
2019-05-16T19:59:53.558Z,150.90
2019-05-16T20:02:20.221Z,154.87
2019-05-16T20:04:47.197Z,142.70
2019-05-16T20:07:14.091Z,123.37
2019-05-16T20:09:40.651Z,120.53
2019-05-16T20:12:07.811Z,103.57
2019-05-16T20:14:36.531Z,92.73
2019-05-16T20:17:02.919Z,124.33
2019-05-16T20:19:29.484Z,155.17
2019-05-16T20:21:58.028Z,221.27
2019-05-16T20:24:27.154Z,235.97
2019-05-16T20:26:53.495Z,221.20
2019-05-16T20:29:20.342Z,233.00
2019-05-16T20:31:47.533Z,230.60
2019-05-16T20:34:14.449Z,268.47
2019-05-16T20:36:41.227Z,291.23
2019-05-16T20:39:08.550Z,305.87
2019-05-16T20:41:36.828Z,254.60
2019-05-16T20:44:03.608Z,214.87
2019-05-16T20:46:30.245Z,200.30
2019-05-16T20:48:58.883Z,208.40
2019-05-16T20:51:26.975Z,178.30
2019-05-16T20:53:53.816Z,163.30
2019-05-16T20:56:20.380Z,159.37
2019-05-16T20:58:48.685Z,161.00
2019-05-16T21:01:17.295Z,158.33
2019-05-16T21:03:43.760Z,163.47
2019-05-16T21:06:10.370Z,384.73
2019-05-16T21:08:37.171Z,371.23
2019-05-16T21:11:06.362Z,184.87
2019-05-16T21:13:32.188Z,165.13
2019-05-16T21:15:58.768Z,166.83
2019-05-16T21:18:25.391Z,179.93
2019-05-16T21:20:51.941Z,157.30
2019-05-16T21:23:19.479Z,152.80
2019-05-16T21:25:46.833Z,154.77
2019-05-16T21:28:13.767Z,178.57
2019-05-16T21:30:40.575Z,158.67
2019-05-16T21:33:07.104Z,163.70
2019-05-16T21:35:36.302Z,183.50
2019-05-16T21:38:02.584Z,195.87
2019-05-16T21:40:31.318Z,167.57
2019-05-16T21:42:58.814Z,165.40
2019-05-16T21:45:28.158Z,187.10
2019-05-16T21:47:56.591Z,210.70
2019-05-16T21:50:22.884Z,215.90
2019-05-16T21:52:49.536Z,237.57
2019-05-16T21:55:17.603Z,229.17
2019-05-16T21:57:46.699Z,213.97
2019-05-16T22:00:27.851Z,224.83
2019-05-16T22:02:54.592Z,228.17
2019-05-16T22:05:22.007Z,216.03
2019-05-16T22:07:48.959Z,205.40
2019-05-16T22:10:15.679Z,202.67
2019-05-16T22:12:42.314Z,198.00
2019-05-16T22:15:09.512Z,196.87
2019-05-16T22:17:36.697Z,186.80
2019-05-16T22:20:07.015Z,183.80
2019-05-16T22:22:33.861Z,189.07
2019-05-16T22:25:00.478Z,184.03
2019-05-16T22:27:27.251Z,170.70
2019-05-16T22:29:56.584Z,152.23
2019-05-16T22:32:23.935Z,136.17
2019-05-16T22:34:50.478Z,140.43
2019-05-16T22:37:17.303Z,146.20
2019-05-16T22:39:43.911Z,133.57
2019-05-16T22:42:10.511Z,130.80
2019-05-16T22:44:37.274Z,135.20
2019-05-16T22:47:06.545Z,145.37
2019-05-16T22:49:32.432Z,120.50
2019-05-16T22:51:59.594Z,124.63
2019-05-16T22:54:26.365Z,117.70
2019-05-16T22:56:53.066Z,122.17
2019-05-16T22:59:20.122Z,157.33
2019-05-16T23:01:46.700Z,127.37
2019-05-16T23:04:13.384Z,125.23
2019-05-16T23:06:40.090Z,110.23
2019-05-16T23:09:07.053Z,111.60
2019-05-16T23:11:36.226Z,110.83
2019-05-16T23:14:02.422Z,120.03
2019-05-16T23:16:28.979Z,139.23
2019-05-16T23:18:57.108Z,150.10
2019-05-16T23:21:24.137Z,132.97
2019-05-16T23:23:50.920Z,167.73
2019-05-16T23:26:17.925Z,136.40
2019-05-16T23:28:44.380Z,126.13
2019-05-16T23:31:10.889Z,140.77
2019-05-16T23:33:37.536Z,135.20
2019-05-16T23:36:06.839Z,167.37
2019-05-16T23:38:32.601Z,166.60
2019-05-16T23:40:59.150Z,181.30
2019-05-16T23:43:25.764Z,148.93
2019-05-16T23:45:52.418Z,160.83
2019-05-16T23:48:19.058Z,177.37
2019-05-16T23:50:47.468Z,160.23
2019-05-16T23:53:16.344Z,162.53
2019-05-16T23:55:42.774Z,156.53
2019-05-16T23:58:09.462Z,160.23
